createdAt,value
2022-08-12T00:01:04.674Z,94788.50
2022-08-12T00:03:51.436Z,94775.03
2022-08-12T00:06:40.121Z,94796.97
2022-08-12T00:09:27.020Z,94796.97
2022-08-12T00:12:13.606Z,94785.53
2022-08-12T00:15:01.773Z,94794.53
2022-08-12T00:17:48.585Z,94795.66
2022-08-12T00:20:34.036Z,94784.38
2022-08-12T00:23:20.158Z,94795.03
2022-08-12T00:26:23.670Z,94797.25
2022-08-12T00:29:13.032Z,94796.78
2022-08-12T00:32:01.208Z,94794.72
2022-08-12T00:34:51.795Z,94788.34
2022-08-12T00:37:41.510Z,94802.78
2022-08-12T00:40:30.057Z,94775.56
2022-08-12T00:42:58.385Z,94799.47
2022-08-12T00:45:26.106Z,94796.66
2022-08-12T00:47:53.810Z,94795.84
2022-08-12T00:50:23.176Z,94794.09
2022-08-12T00:52:52.892Z,94784.91
2022-08-12T00:55:21.298Z,94774.50
2022-08-12T00:57:50.888Z,94784.91
2022-08-12T01:00:22.638Z,94788.63
2022-08-12T01:02:57.639Z,94787.66
2022-08-12T01:05:44.771Z,94784.94
2022-08-12T01:08:30.560Z,94793.81
2022-08-12T01:11:16.740Z,94783.13
2022-08-12T01:13:48.780Z,94789.94
2022-08-12T01:16:22.907Z,94776.91
2022-08-12T01:18:53.361Z,94786.91
2022-08-12T01:21:35.289Z,94792.00
2022-08-12T01:24:31.360Z,94784.81
2022-08-12T01:27:01.478Z,94767.63
2022-08-12T01:29:33.065Z,94780.66
2022-08-12T01:32:06.664Z,94780.22
2022-08-12T01:34:38.840Z,94780.75
2022-08-12T01:37:09.425Z,94785.41
2022-08-12T01:40:33.785Z,94782.06
2022-08-12T01:42:52.092Z,94764.25
2022-08-12T01:45:25.025Z,94778.22
2022-08-12T01:48:15.992Z,94779.19
2022-08-12T01:52:15.107Z,94763.44
2022-08-12T01:54:30.240Z,94762.50
2022-08-12T01:57:59.617Z,94779.63
2022-08-12T02:00:20.260Z,94750.59
2022-08-12T02:03:52.457Z,94768.50
2022-08-12T02:07:47.721Z,94753.72
2022-08-12T02:11:14.500Z,94770.94
2022-08-12T02:14:11.734Z,94774.44
2022-08-12T02:17:55.462Z,94770.03
2022-08-12T02:20:52.118Z,94759.34
2022-08-12T02:23:28.149Z,94756.16
2022-08-12T02:26:16.060Z,94756.91
2022-08-12T02:28:43.470Z,94764.88
2022-08-12T02:31:11.152Z,94751.22
2022-08-12T02:33:38.726Z,94759.00
2022-08-12T02:36:06.279Z,94755.16
2022-08-12T02:38:33.954Z,94759.00
2022-08-12T02:41:04.994Z,94752.78
2022-08-12T02:43:41.488Z,94753.03
2022-08-12T02:46:15.051Z,94755.72
2022-08-12T02:48:55.097Z,94748.59
2022-08-12T02:51:51.033Z,94742.13
2022-08-12T02:54:18.159Z,94749.63
2022-08-12T02:56:50.311Z,94745.06
2022-08-12T02:59:22.693Z,94739.78
2022-08-12T03:02:04.276Z,94740.22
2022-08-12T03:04:54.081Z,94733.81
2022-08-12T03:07:56.565Z,94733.81
2022-08-12T03:10:25.170Z,94728.16
2022-08-12T03:13:08.554Z,94737.44
2022-08-12T03:15:37.108Z,94730.88
2022-08-12T03:18:26.868Z,94723.84
2022-08-12T03:20:57.261Z,94734.03
2022-08-12T03:23:29.658Z,94729.72
2022-08-12T03:26:02.098Z,94717.97
2022-08-12T03:28:50.955Z,94721.03
2022-08-12T03:31:29.954Z,94729.00
2022-08-12T03:34:10.047Z,94725.56
2022-08-12T03:36:39.386Z,94712.72
2022-08-12T03:39:35.947Z,94740.69
2022-08-12T03:42:22.613Z,94739.00
2022-08-12T03:45:52.615Z,94738.31
2022-08-12T03:48:38.816Z,94737.50
2022-08-12T03:51:24.249Z,94733.81
2022-08-12T03:54:11.609Z,94730.19
2022-08-12T03:56:58.394Z,94732.56
2022-08-12T03:59:43.812Z,94740.34
2022-08-12T04:02:17.928Z,94734.97
2022-08-12T04:04:46.628Z,94740.13
2022-08-12T04:07:16.432Z,94741.63
2022-08-12T04:09:46.770Z,94727.34
2022-08-12T04:12:34.259Z,94726.41
2022-08-12T04:15:03.458Z,94740.22
2022-08-12T04:17:32.179Z,94734.31
2022-08-12T04:19:59.705Z,94744.59
2022-08-12T04:22:30.661Z,94736.91
2022-08-12T04:25:01.501Z,94727.50
2022-08-12T04:27:31.898Z,94732.59
2022-08-12T04:30:16.872Z,94735.94
2022-08-12T04:32:51.081Z,94706.88
2022-08-12T04:35:19.440Z,94726.16
2022-08-12T04:37:58.115Z,94726.50
2022-08-12T04:40:31.515Z,94722.69
2022-08-12T04:43:01.486Z,94717.25
2022-08-12T04:45:30.370Z,94720.22
2022-08-12T04:47:57.314Z,94712.66
2022-08-12T04:50:34.663Z,94724.34
2022-08-12T04:53:06.083Z,94715.34
2022-08-12T04:55:34.893Z,94720.94
2022-08-12T04:58:02.058Z,94723.91
2022-08-12T05:00:30.311Z,94718.63
2022-08-12T05:02:57.141Z,94721.25
2022-08-12T05:05:24.731Z,94715.31
2022-08-12T05:07:54.378Z,94715.28
2022-08-12T05:10:21.798Z,94716.94
2022-08-12T05:13:05.817Z,94710.38
2022-08-12T05:15:32.693Z,94712.00
2022-08-12T05:18:00.083Z,94711.06
2022-08-12T05:20:34.524Z,94717.63
2022-08-12T05:23:18.053Z,94720.00
2022-08-12T05:25:49.833Z,94723.28
2022-08-12T05:28:18.344Z,94737.59
2022-08-12T05:30:46.201Z,94739.34
2022-08-12T05:33:15.684Z,94731.25
2022-08-12T05:35:45.973Z,94741.81
2022-08-12T05:38:34.864Z,94740.34
2022-08-12T05:41:05.682Z,94736.19
2022-08-12T05:43:35.389Z,94733.84
2022-08-12T05:46:02.189Z,94735.50
2022-08-12T05:48:32.605Z,94727.88
2022-08-12T05:50:59.542Z,94738.41
2022-08-12T05:53:26.619Z,94739.94
2022-08-12T05:55:54.021Z,94734.88
2022-08-12T05:58:21.345Z,94745.41
2022-08-12T06:00:48.224Z,94739.66
2022-08-12T06:03:19.617Z,94751.50
2022-08-12T06:05:55.601Z,94744.50
2022-08-12T06:08:24.942Z,94735.16
2022-08-12T06:10:52.269Z,94733.94
2022-08-12T06:13:28.112Z,94740.66
2022-08-12T06:16:08.018Z,94741.47
2022-08-12T06:18:34.999Z,94741.06
2022-08-12T06:21:02.529Z,94739.50
2022-08-12T06:23:30.423Z,94730.28
2022-08-12T06:25:58.348Z,94729.72
2022-08-12T06:28:26.144Z,94730.75
2022-08-12T06:31:22.326Z,94731.03
2022-08-12T06:33:56.106Z,94728.13
2022-08-12T06:36:29.911Z,94728.75
2022-08-12T06:38:59.667Z,94728.28
2022-08-12T06:42:30.812Z,94732.31
2022-08-12T06:44:32.762Z,94726.13
2022-08-12T06:47:00.204Z,94727.88
2022-08-12T06:49:28.413Z,94731.66
2022-08-12T06:51:56.675Z,94724.41
2022-08-12T06:54:31.656Z,94722.84
2022-08-12T06:57:59.713Z,94715.72
2022-08-12T06:59:48.030Z,94726.16
2022-08-12T07:02:14.912Z,94722.88
2022-08-12T07:04:42.246Z,94716.69
2022-08-12T07:07:10.293Z,94715.38
2022-08-12T07:10:04.583Z,94723.06
2022-08-12T07:12:27.851Z,94729.94
2022-08-12T07:14:57.485Z,94731.41
2022-08-12T07:17:24.520Z,94733.59
2022-08-12T07:19:52.120Z,94735.25
2022-08-12T07:22:19.211Z,94731.41
2022-08-12T07:25:06.043Z,94732.97
2022-08-12T07:27:42.402Z,94738.00
2022-08-12T07:30:10.504Z,94733.66
2022-08-12T07:32:37.738Z,94739.28
2022-08-12T07:35:06.476Z,94733.78
2022-08-12T07:37:33.650Z,94731.59
2022-08-12T07:40:01.318Z,94732.00
2022-08-12T07:42:29.747Z,94735.94
2022-08-12T07:44:56.790Z,94724.16
2022-08-12T07:47:24.726Z,94727.31
2022-08-12T07:50:04.345Z,94715.16
2022-08-12T07:52:33.939Z,94739.69
2022-08-12T07:55:01.685Z,94718.06
2022-08-12T07:57:28.547Z,94729.38
2022-08-12T07:59:55.546Z,94732.25
2022-08-12T08:02:26.883Z,94724.00
2022-08-12T08:04:57.675Z,94731.16
2022-08-12T08:07:27.492Z,94740.97
2022-08-12T08:10:00.073Z,94725.53
2022-08-12T08:12:47.882Z,94734.88
2022-08-12T08:15:16.704Z,94726.69
2022-08-12T08:18:05.281Z,94725.09
2022-08-12T08:20:41.257Z,94728.41
2022-08-12T08:23:19.349Z,94724.25
2022-08-12T08:25:46.200Z,94721.19
2022-08-12T08:28:17.277Z,94729.63
2022-08-12T08:33:24.623Z,94729.69
2022-08-12T08:36:02.380Z,94746.28
2022-08-12T08:38:33.268Z,94741.56
2022-08-12T08:42:17.303Z,94749.03
2022-08-12T08:44:11.495Z,94736.31
2022-08-12T08:46:40.581Z,94745.88
2022-08-12T08:49:08.651Z,94742.53
2022-08-12T08:51:36.542Z,94749.41
2022-08-12T08:54:03.982Z,94741.91
2022-08-12T08:56:30.748Z,94727.22
2022-08-12T08:58:57.997Z,94733.16
2022-08-12T09:01:26.208Z,94739.03
2022-08-12T09:05:08.474Z,94739.78
2022-08-12T09:06:53.325Z,94740.75
2022-08-12T09:09:21.364Z,94734.50
2022-08-12T09:14:54.882Z,94733.13
2022-08-12T09:17:22.577Z,94733.81
2022-08-12T09:22:37.716Z,94748.94
2022-08-12T09:25:07.229Z,94733.09
2022-08-12T09:30:42.410Z,94731.59
2022-08-12T09:33:18.823Z,94743.28
2022-08-12T09:36:04.742Z,94726.16
2022-08-12T09:38:35.318Z,94727.41
2022-08-12T09:42:34.090Z,94721.88
2022-08-12T09:44:38.011Z,94719.25
2022-08-12T09:46:56.997Z,94712.50
2022-08-12T09:49:24.889Z,94714.19
2022-08-12T09:51:55.535Z,94715.84
2022-08-12T09:54:33.183Z,94716.78
2022-08-12T09:58:07.871Z,94699.66
2022-08-12T10:00:13.329Z,94700.63
2022-08-12T10:03:32.098Z,94711.69
2022-08-12T10:06:19.393Z,94703.53
2022-08-12T10:08:52.517Z,94705.19
2022-08-12T10:12:07.750Z,94701.47
2022-08-12T10:14:34.770Z,94697.44
2022-08-12T10:17:08.778Z,94709.41
2022-08-12T10:19:37.855Z,94700.78
2022-08-12T10:22:06.230Z,94703.47
2022-08-12T10:25:17.635Z,94695.78
2022-08-12T10:28:09.018Z,94700.91
2022-08-12T10:30:44.095Z,94685.94
2022-08-12T10:33:19.284Z,94679.97
2022-08-12T10:35:58.412Z,94640.66
2022-08-12T10:38:38.003Z,94684.25
2022-08-12T10:41:58.482Z,94678.84
2022-08-12T10:44:17.426Z,94672.34
2022-08-12T10:46:50.097Z,94677.56
2022-08-12T10:50:03.694Z,94676.41
2022-08-12T10:52:33.814Z,94676.34
2022-08-12T10:54:56.226Z,94668.44
2022-08-12T10:58:15.745Z,94670.63
2022-08-12T11:00:30.304Z,94663.78
2022-08-12T11:04:22.746Z,94664.31
2022-08-12T11:07:02.638Z,94663.81
2022-08-12T11:08:42.287Z,94644.38
2022-08-12T11:11:13.816Z,94662.16
2022-08-12T11:13:48.755Z,94658.13
2022-08-12T11:16:22.441Z,94658.09
2022-08-12T11:18:54.996Z,94660.63
2022-08-12T11:21:51.096Z,94659.03
2022-08-12T11:24:30.663Z,94663.91
2022-08-12T11:26:59.745Z,94648.25
2022-08-12T11:30:01.536Z,94661.16
2022-08-12T11:32:15.300Z,94656.56
2022-08-12T11:34:53.528Z,94659.03
2022-08-12T11:37:25.978Z,94656.31
2022-08-12T11:42:46.399Z,94639.06
2022-08-12T11:45:16.912Z,94642.84
2022-08-12T11:47:44.474Z,94641.50
2022-08-12T11:50:19.660Z,94638.00
2022-08-12T11:52:54.868Z,94635.81
2022-08-12T11:55:23.149Z,94622.84
2022-08-12T11:58:51.147Z,94635.69
2022-08-12T12:03:40.234Z,94628.25
2022-08-12T12:06:14.224Z,94645.22
2022-08-12T12:08:50.447Z,94635.97
2022-08-12T12:11:18.945Z,94627.31
2022-08-12T12:14:07.929Z,94632.31
2022-08-12T12:16:33.651Z,94628.13
2022-08-12T12:19:10.018Z,94619.66
2022-08-12T12:21:47.855Z,94633.91
2022-08-12T12:24:22.195Z,94624.22
2022-08-12T12:27:00.372Z,94624.78
2022-08-12T12:30:13.876Z,94617.75
2022-08-12T12:32:17.210Z,94624.75
2022-08-12T12:35:14.369Z,94633.53
2022-08-12T12:38:04.231Z,94614.72
2022-08-12T12:40:19.073Z,94617.22
2022-08-12T12:42:56.814Z,94622.53
2022-08-12T12:45:28.331Z,94615.00
2022-08-12T12:48:08.203Z,94618.34
2022-08-12T12:50:51.091Z,94594.84
2022-08-12T12:54:05.819Z,94605.13
2022-08-12T12:56:16.166Z,94606.44
2022-08-12T12:58:43.887Z,94610.63
2022-08-12T13:01:25.294Z,94614.44
2022-08-12T13:04:01.986Z,94617.66
2022-08-12T13:06:31.789Z,94615.53
2022-08-12T13:09:02.594Z,94615.53
2022-08-12T13:11:41.651Z,94602.81
2022-08-12T13:14:29.118Z,94606.41
2022-08-12T13:17:03.617Z,94606.72
2022-08-12T13:19:46.592Z,94609.97
2022-08-12T13:22:19.626Z,94605.97
2022-08-12T13:24:56.135Z,94600.19
2022-08-12T13:27:35.282Z,94597.13
2022-08-12T13:30:13.917Z,94576.22
2022-08-12T13:32:56.598Z,94595.94
2022-08-12T13:36:02.856Z,94592.91
2022-08-12T13:38:10.916Z,94599.50
2022-08-12T13:40:40.674Z,94591.16
2022-08-12T13:43:07.593Z,94592.88
2022-08-12T13:45:36.671Z,94593.53
2022-08-12T13:48:08.092Z,94580.72
2022-08-12T13:50:41.609Z,94581.75
2022-08-12T13:53:23.803Z,94577.91
2022-08-12T13:55:59.748Z,94573.31
2022-08-12T13:58:32.829Z,94564.94
2022-08-12T14:01:04.684Z,94571.06
2022-08-12T14:03:51.522Z,94569.22
2022-08-12T14:06:18.489Z,94547.72
2022-08-12T14:08:45.565Z,94571.25
2022-08-12T14:11:18.286Z,94565.38
2022-08-12T14:14:03.470Z,94567.41
2022-08-12T14:16:46.681Z,94561.44
2022-08-12T14:19:24.208Z,94555.88
2022-08-12T14:22:00.594Z,94547.88
2022-08-12T14:24:40.263Z,94542.66
2022-08-12T14:27:10.614Z,94545.91
2022-08-12T14:30:04.686Z,94552.78
2022-08-12T14:32:34.832Z,94545.03
2022-08-12T14:35:04.024Z,94531.56
2022-08-12T14:37:56.136Z,94536.34
2022-08-12T14:40:18.555Z,94528.31
2022-08-12T14:42:49.619Z,94548.19
2022-08-12T14:45:18.144Z,94555.94
2022-08-12T14:47:58.500Z,94549.38
2022-08-12T14:50:41.120Z,94562.03
2022-08-12T14:55:13.870Z,94549.13
2022-08-12T14:59:23.724Z,94553.66
2022-08-12T15:01:52.030Z,94554.53
2022-08-12T15:04:26.108Z,94538.84
2022-08-12T15:06:55.146Z,94543.06
2022-08-12T15:09:29.293Z,94547.06
2022-08-12T15:12:03.232Z,94549.28
2022-08-12T15:14:31.969Z,94536.44
2022-08-12T15:17:00.117Z,94557.22
2022-08-12T15:20:18.002Z,94559.81
2022-08-12T15:22:37.373Z,94553.09
2022-08-12T15:25:07.475Z,94547.13
2022-08-12T15:28:10.930Z,94558.13
2022-08-12T15:30:30.778Z,94548.84
2022-08-12T15:32:58.205Z,94544.50
2022-08-12T15:35:38.336Z,94545.38
2022-08-12T15:38:19.543Z,94539.47
2022-08-12T15:40:49.713Z,94536.50
2022-08-12T15:43:51.344Z,94532.78
2022-08-12T15:46:15.261Z,94533.88
2022-08-12T15:48:47.001Z,94523.25
2022-08-12T15:51:57.314Z,94524.38
2022-08-12T15:54:33.825Z,94526.09
2022-08-12T15:57:07.647Z,94541.50
2022-08-12T16:00:04.128Z,94531.63
2022-08-12T16:02:29.569Z,94535.94
2022-08-12T16:04:56.913Z,94536.41
2022-08-12T16:07:26.026Z,94549.91
2022-08-12T16:10:08.104Z,94530.75
2022-08-12T16:12:55.099Z,94529.97
2022-08-12T16:15:29.353Z,94544.00
2022-08-12T16:18:14.924Z,94537.34
2022-08-12T16:20:46.803Z,94541.13
2022-08-12T16:23:36.140Z,94534.13
2022-08-12T16:26:14.614Z,94531.28
2022-08-12T16:28:47.187Z,94537.44
2022-08-12T16:31:22.749Z,94523.28
2022-08-12T16:33:59.534Z,94520.75
2022-08-12T16:36:29.624Z,94532.66
2022-08-12T16:38:56.908Z,94530.00
2022-08-12T16:41:24.044Z,94522.94
2022-08-12T16:43:53.123Z,94531.31
2022-08-12T16:46:32.384Z,94522.44
2022-08-12T16:49:09.163Z,94527.63
2022-08-12T16:51:46.336Z,94530.56
2022-08-12T16:54:17.221Z,94522.78
2022-08-12T16:56:54.876Z,94526.81
2022-08-12T16:59:30.790Z,94543.84
2022-08-12T17:02:33.760Z,94533.03
2022-08-12T17:05:04.793Z,94521.94
2022-08-12T17:07:43.743Z,94538.69
2022-08-12T17:10:18.135Z,94539.50
2022-08-12T17:12:45.540Z,94538.97
2022-08-12T17:15:50.822Z,94546.25
2022-08-12T17:18:38.889Z,94539.78
2022-08-12T17:20:49.437Z,94539.78
2022-08-12T17:23:19.436Z,94531.38
2022-08-12T17:25:52.878Z,94542.41
2022-08-12T17:28:22.671Z,94536.75
2022-08-12T17:30:57.369Z,94546.19
2022-08-12T17:33:27.758Z,94541.84
2022-08-12T17:36:03.669Z,94547.25
2022-08-12T17:38:30.651Z,94549.94
2022-08-12T17:40:57.978Z,94545.03
2022-08-12T17:43:51.940Z,94537.47
2022-08-12T17:46:24.002Z,94542.88
2022-08-12T17:48:59.802Z,94547.91
2022-08-12T17:51:31.662Z,94551.06
2022-08-12T17:54:06.368Z,94546.59
2022-08-12T17:56:43.113Z,94548.78
2022-08-12T17:59:12.403Z,94550.91
2022-08-12T18:01:45.392Z,94544.19
2022-08-12T18:04:23.410Z,94548.16
2022-08-12T18:07:02.429Z,94548.66
2022-08-12T18:09:36.332Z,94549.69
2022-08-12T18:12:24.569Z,94547.22
2022-08-12T18:15:02.308Z,94549.66
2022-08-12T18:17:39.370Z,94553.34
2022-08-12T18:20:15.481Z,94554.91
2022-08-12T18:22:46.702Z,94552.38
2022-08-12T18:26:16.390Z,94548.00
2022-08-12T18:28:29.248Z,94561.44
2022-08-12T18:31:03.198Z,94566.75
2022-08-12T18:33:41.577Z,94557.44
2022-08-12T18:36:13.647Z,94571.84
2022-08-12T18:38:44.972Z,94563.53
2022-08-12T18:41:35.894Z,94565.75
2022-08-12T18:44:11.348Z,94567.44
2022-08-12T18:46:55.351Z,94561.06
2022-08-12T18:49:34.623Z,94573.53
2022-08-12T18:52:07.672Z,94565.81
2022-08-12T18:54:48.060Z,94559.75
2022-08-12T18:57:45.930Z,94573.97
2022-08-12T19:00:07.883Z,94569.78
2022-08-12T19:02:39.950Z,94574.94
2022-08-12T19:05:14.423Z,94567.75
2022-08-12T19:08:00.906Z,94577.63
2022-08-12T19:10:31.602Z,94590.44
2022-08-12T19:13:23.065Z,94586.78
2022-08-12T19:15:54.561Z,94582.03
2022-08-12T19:18:25.928Z,94587.66
2022-08-12T19:20:58.682Z,94582.13
2022-08-12T19:23:34.992Z,94606.78
2022-08-12T19:26:05.347Z,94590.88
2022-08-12T19:28:39.746Z,94598.75
2022-08-12T19:31:45.436Z,94595.88
2022-08-12T19:38:04.398Z,94605.47
2022-08-12T19:40:32.361Z,94609.03
2022-08-12T19:43:19.945Z,94610.88
2022-08-12T19:45:56.696Z,94602.94
2022-08-12T19:48:30.312Z,94605.50
2022-08-12T19:50:57.585Z,94611.50
2022-08-12T19:53:25.221Z,94612.53
2022-08-12T19:55:57.152Z,94605.59
2022-08-12T19:58:25.490Z,94614.03
2022-08-12T20:00:55.462Z,94617.38
2022-08-12T20:03:39.561Z,94615.84
2022-08-12T20:06:15.542Z,94613.19
2022-08-12T20:08:56.488Z,94616.13
2022-08-12T20:12:11.623Z,94631.44
2022-08-12T20:14:19.641Z,94624.19
2022-08-12T20:17:01.911Z,94623.38
2022-08-12T20:20:01.174Z,94635.50
2022-08-12T20:22:29.915Z,94629.59
2022-08-12T20:25:07.120Z,94629.38
2022-08-12T20:28:05.656Z,94629.56
2022-08-12T20:30:37.298Z,94625.09
2022-08-12T20:33:17.347Z,94626.78
2022-08-12T20:36:13.233Z,94628.25
2022-08-12T20:38:38.353Z,94631.91
2022-08-12T20:41:16.726Z,94624.41
2022-08-12T20:43:49.759Z,94639.16
2022-08-12T20:46:19.101Z,94637.78
2022-08-12T20:48:54.806Z,94636.97
2022-08-12T20:51:27.447Z,94635.19
2022-08-12T20:53:58.639Z,94633.16
2022-08-12T20:56:34.622Z,94641.16
2022-08-12T20:59:14.689Z,94625.84
2022-08-12T21:01:48.525Z,94622.22
2022-08-12T21:04:36.482Z,94636.53
2022-08-12T21:07:08.496Z,94627.97
2022-08-12T21:09:51.067Z,94638.66
2022-08-12T21:12:27.495Z,94626.41
2022-08-12T21:15:23.058Z,94626.59
2022-08-12T21:18:08.136Z,94630.91
2022-08-12T21:20:36.910Z,94625.78
2022-08-12T21:23:08.973Z,94637.03
2022-08-12T21:25:45.315Z,94623.16
2022-08-12T21:28:14.583Z,94627.03
2022-08-12T21:31:11.222Z,94610.91
2022-08-12T21:33:58.344Z,94620.31
2022-08-12T21:36:22.817Z,94619.69
2022-08-12T21:39:20.465Z,94619.09
2022-08-12T21:41:54.813Z,94617.47
2022-08-12T21:45:43.932Z,94624.38
2022-08-12T21:47:19.796Z,94622.78
2022-08-12T21:50:03.269Z,94622.56
2022-08-12T21:52:41.022Z,94626.47
2022-08-12T21:55:19.085Z,94629.53
2022-08-12T21:57:54.469Z,94628.53
2022-08-12T22:00:35.129Z,94631.78
2022-08-12T22:04:03.089Z,94630.56
2022-08-12T22:06:30.723Z,94624.03
2022-08-12T22:09:17.185Z,94624.44
2022-08-12T22:11:49.209Z,94626.91
2022-08-12T22:14:28.816Z,94636.09
2022-08-12T22:16:57.708Z,94628.53
2022-08-12T22:19:24.924Z,94629.94
2022-08-12T22:21:55.883Z,94627.72
2022-08-12T22:24:26.811Z,94626.06
2022-08-12T22:27:17.843Z,94615.66
2022-08-12T22:30:05.214Z,94618.72
2022-08-12T22:32:33.686Z,94636.91
2022-08-12T22:35:22.248Z,94631.38
2022-08-12T22:37:50.852Z,94623.00
2022-08-12T22:40:20.747Z,94629.59
2022-08-12T22:43:06.403Z,94619.56
2022-08-12T22:45:56.606Z,94623.44
2022-08-12T22:48:26.550Z,94628.56
2022-08-12T22:50:59.236Z,94621.84
2022-08-12T22:53:36.208Z,94632.25
2022-08-12T22:56:08.148Z,94629.59
2022-08-12T22:58:40.582Z,94615.72
2022-08-12T23:01:11.241Z,94616.91
2022-08-12T23:03:48.891Z,94610.13
2022-08-12T23:06:23.978Z,94605.81
2022-08-12T23:08:52.297Z,94619.94
2022-08-12T23:11:23.482Z,94614.63
2022-08-12T23:13:55.070Z,94615.66
2022-08-12T23:16:30.943Z,94615.22
2022-08-12T23:19:29.695Z,94609.06
2022-08-12T23:22:37.123Z,94618.41
2022-08-12T23:24:55.789Z,94614.69
2022-08-12T23:27:52.293Z,94615.00
2022-08-12T23:30:32.157Z,94615.75
2022-08-12T23:33:13.597Z,94617.06
2022-08-12T23:35:59.460Z,94597.69
2022-08-12T23:38:32.447Z,94615.19
2022-08-12T23:41:05.958Z,94602.81
2022-08-12T23:43:39.628Z,94600.28
2022-08-12T23:46:18.649Z,94587.06
2022-08-12T23:48:47.896Z,94588.50
2022-08-12T23:51:21.649Z,94586.28
2022-08-12T23:54:02.547Z,94592.19
2022-08-12T23:56:33.668Z,94601.97
2022-08-12T23:59:07.838Z,94603.56
